Airfield :
LOGIN :

Register | Disclaimer

   EN    FR    IT 

 










Legend :    VFR   Marginal VFR   IFR   Intensive IFR   Very Intensive IFR
Visi :
Ceiling :
>= 8 km
>= 3000ft
5 to 8 km
1000 to 3000 ft
1500m to 5 km
500 to 1000 ft
800 to 1500m
200 to 500 ft
< 800m
< 200 ft
Symbols :   Thunderstorms  Fog  Heavy snow  Heavy precipitations  Wind > 20 kt
SIGMETs :     Misc.  Thunderstorms  Icing  Turbulence  Mountain Waves  Volcanic Ashes







- Airport Elevation : 1046 ft
- IATA code : FDE


ENBL - Bringeland

CURRENT METAR :
  • 241620Z 33014KT 9999 FEW035 12/08 Q1006

EXPIRED METARs :
  • 241550Z 33013KT 9999 FEW045 13/09 Q1006
  • 241520Z 33013KT 9999 FEW045 14/08 Q1006
  • 241450Z 33011KT 300V360 9999 FEW045 13/08 Q1006
  • 241420Z 34014KT 9999 SCT045 14/08 Q1006
  • 241350Z 33010KT 280V360 9999 SCT045 16/06 Q1006

TAF N/A
No reported NOTAMs for that airfield.



MET'MAP, your aeronautical weather chart ! - Copyright ORBIFLY December 2007 - Disclaimer

ORBIFLY MET'MAP TEAM :

Programming & Development : Alexandra Zaïnal
Concept & Development : Baudouin d'Aumeries
Co-Development & Prog : Marc-Olivier Méhu
Technical & hardware support : Manuel Goepfert

Contact : metmap@orbifly.com




SOURCES & CREDITS :

   NOAA